Time;durP1;ratioP1;P1;durP2;ratioP2;P2;SDS_P1;SDS_P2;PMS_P1;PMS_P2;Temp;Humidity;BMP_temperature;BMP_pressure;BME280_temperature;BME280_humidity;BME280_pressure;Samples;Min_cycle;Max_cycle;Signal;HPM_P1;HPM_P2
2022/09/30 00:01:40;;;;;;;15.27;9.30;;;;;;;6.54;100.00;96444.94;5064991;28;20549;-64
2022/09/30 00:04:15;;;;;;;17.17;10.60;;;;;;;6.61;100.00;96447.47;5065010;28;20111;-64
2022/09/30 00:06:41;;;;;;;14.48;8.85;;;;;;;6.73;100.00;96439.25;5064985;28;20507;-64
2022/09/30 00:09:10;;;;;;;15.15;9.80;;;;;;;6.76;100.00;96438.78;5065483;28;20128;-64
2022/09/30 00:11:38;;;;;;;15.65;9.18;;;;;;;6.83;100.00;96441.28;5068069;28;20365;-64
2022/09/30 00:14:05;;;;;;;12.85;8.13;;;;;;;6.88;100.00;96435.94;5085338;28;20365;-64
2022/09/30 00:16:35;;;;;;;17.48;9.10;;;;;;;6.86;100.00;96436.19;5085557;28;20044;-64
2022/09/30 00:19:04;;;;;;;13.15;8.32;;;;;;;6.79;100.00;96435.59;5074852;28;20048;-64
2022/09/30 00:21:34;;;;;;;15.85;8.45;;;;;;;6.50;100.00;96441.13;5064532;28;20435;-64
2022/09/30 00:24:03;;;;;;;12.00;7.88;;;;;;;6.36;100.00;96444.19;5065310;28;20044;-64
2022/09/30 00:26:30;;;;;;;14.30;7.85;;;;;;;6.38;100.00;96447.44;5065174;28;20120;-64
2022/09/30 00:28:58;;;;;;;16.52;9.73;;;;;;;6.33;100.00;96452.72;5064533;28;20206;-64
2022/09/30 00:31:27;;;;;;;15.25;8.23;;;;;;;6.23;100.00;96450.72;5063746;28;20147;-64
2022/09/30 00:34:06;;;;;;;13.95;8.93;;;;;;;6.17;100.00;96449.03;5064722;28;20048;-64
2022/09/30 00:36:44;;;;;;;14.15;8.52;;;;;;;6.06;100.00;96448.06;5064660;28;20048;-64
2022/09/30 00:39:19;;;;;;;16.40;9.55;;;;;;;5.90;100.00;96446.94;5065102;28;20037;-64
2022/09/30 00:41:50;;;;;;;20.63;9.63;;;;;;;5.83;100.00;96446.31;5068187;28;20048;-64
2022/09/30 00:44:38;;;;;;;15.48;9.20;;;;;;;5.82;100.00;96448.19;5078820;28;20036;-64
2022/09/30 00:47:24;;;;;;;16.23;9.68;;;;;;;5.75;100.00;96449.41;5065111;28;20128;-64
2022/09/30 00:49:51;;;;;;;16.25;10.57;;;;;;;5.73;100.00;96452.34;5063791;28;20055;-64
2022/09/30 00:52:18;;;;;;;15.63;10.05;;;;;;;5.71;100.00;96449.88;5065419;28;20044;-64
2022/09/30 00:54:45;;;;;;;16.83;9.57;;;;;;;5.72;100.00;96456.09;5075019;28;20120;-64
2022/09/30 00:57:11;;;;;;;19.88;11.05;;;;;;;5.82;100.00;96458.94;5067173;28;20055;-63
2022/09/30 00:59:42;;;;;;;18.55;10.77;;;;;;;5.94;100.00;96458.84;5068336;28;20115;-63
2022/09/30 01:02:09;;;;;;;16.50;10.93;;;;;;;5.94;100.00;96460.72;5066819;28;20055;-63
2022/09/30 01:04:37;;;;;;;25.52;12.65;;;;;;;5.98;100.00;96461.88;5067587;28;20075;-63
2022/09/30 01:07:05;;;;;;;21.45;12.25;;;;;;;6.06;100.00;96464.19;5068544;28;20040;-63
2022/09/30 01:09:34;;;;;;;18.88;12.05;;;;;;;6.16;100.00;96462.69;5068268;28;20045;-64
2022/09/30 01:12:08;;;;;;;18.17;10.65;;;;;;;6.22;100.00;96467.06;5071463;28;20093;-63
2022/09/30 01:14:36;;;;;;;17.08;11.20;;;;;;;6.40;100.00;96463.31;5067711;28;20059;-64
2022/09/30 01:17:27;;;;;;;18.40;10.68;;;;;;;6.51;100.00;96472.34;5067854;28;20567;-64
2022/09/30 01:20:25;;;;;;;19.97;10.90;;;;;;;6.43;100.00;96462.81;5066915;28;20045;-64
2022/09/30 01:23:28;;;;;;;18.63;10.30;;;;;;;6.36;100.00;96463.00;5063911;28;20526;-64
2022/09/30 01:26:13;;;;;;;15.30;9.68;;;;;;;6.48;100.00;96462.06;5036124;28;20504;-64
2022/09/30 01:29:10;;;;;;;20.08;10.43;;;;;;;6.53;100.00;96474.78;5067779;28;20075;-64
2022/09/30 01:31:42;;;;;;;15.18;9.70;;;;;;;6.58;100.00;96464.09;5067123;28;20135;-64
2022/09/30 01:34:24;;;;;;;15.52;9.55;;;;;;;6.62;100.00;96462.53;5064801;28;20458;-64
2022/09/30 01:37:09;;;;;;;19.15;9.57;;;;;;;6.59;100.00;96461.16;5067656;28;20135;-64
2022/09/30 01:39:40;;;;;;;15.00;9.20;;;;;;;6.60;100.00;96465.47;5067767;28;20147;-64
2022/09/30 01:42:34;;;;;;;13.90;9.23;;;;;;;6.63;100.00;96469.53;5071452;28;20127;-64
2022/09/30 01:45:07;;;;;;;13.68;8.60;;;;;;;6.70;100.00;96463.97;5065921;28;20132;-64
2022/09/30 01:47:44;;;;;;;16.00;8.98;;;;;;;6.78;100.00;96468.13;5066863;28;20045;-64
2022/09/30 01:50:45;;;;;;;14.32;8.95;;;;;;;6.72;100.00;96472.63;5067315;28;20072;-64
2022/09/30 01:53:37;;;;;;;14.60;8.85;;;;;;;6.58;100.00;96470.28;5049433;28;20151;-64
2022/09/30 01:56:14;;;;;;;16.58;9.18;;;;;;;6.42;100.00;96471.13;5061228;28;20462;-64
2022/09/30 01:58:50;;;;;;;13.70;8.85;;;;;;;6.44;100.00;96483.28;5067404;28;20050;-64
2022/09/30 02:01:30;;;;;;;15.43;9.63;;;;;;;6.57;100.00;96484.81;5066591;28;20119;-64
2022/09/30 02:04:02;;;;;;;16.58;9.63;;;;;;;6.61;100.00;96480.56;5065746;28;20044;-64
2022/09/30 02:06:37;;;;;;;16.45;9.25;;;;;;;6.49;100.00;96491.41;5066907;28;20463;-64
2022/09/30 02:09:14;;;;;;;13.95;9.55;;;;;;;6.55;100.00;96489.59;5065997;28;20044;-64
2022/09/30 02:11:41;;;;;;;14.23;8.85;;;;;;;6.59;100.00;96496.13;5070139;28;20071;-64
2022/09/30 02:14:43;;;;;;;15.95;9.70;;;;;;;6.62;100.00;96495.63;5082994;28;20042;-64
2022/09/30 02:17:19;;;;;;;17.65;9.23;;;;;;;6.72;100.00;96500.34;5017149;28;20116;-64
2022/09/30 02:20:03;;;;;;;13.40;8.77;;;;;;;6.83;100.00;96501.28;5055584;28;20059;-63
2022/09/30 02:22:39;;;;;;;12.52;8.32;;;;;;;6.94;100.00;96501.41;5066608;28;20533;-64
2022/09/30 02:25:09;;;;;;;14.07;7.68;;;;;;;6.91;100.00;96505.41;5066980;28;20479;-64
2022/09/30 02:27:41;;;;;;;12.45;8.07;;;;;;;6.90;100.00;96509.19;5067480;28;20302;-64
2022/09/30 02:30:10;;;;;;;15.07;8.30;;;;;;;6.72;100.00;96519.19;5066794;28;20078;-64
2022/09/30 02:32:42;;;;;;;11.15;7.43;;;;;;;6.55;100.00;96510.31;5065708;28;20036;-64
2022/09/30 02:35:15;;;;;;;13.88;7.53;;;;;;;6.45;100.00;96506.41;5066052;28;20252;-64
2022/09/30 02:37:47;;;;;;;15.65;8.07;;;;;;;6.44;100.00;96512.84;5067429;28;20119;-64
2022/09/30 02:40:29;;;;;;;11.20;7.72;;;;;;;6.08;100.00;96512.31;5066542;28;20414;-64
2022/09/30 02:42:56;;;;;;;19.38;8.35;;;;;;;5.89;100.00;96515.19;5080666;28;20123;-64
2022/09/30 02:45:23;;;;;;;13.88;8.40;;;;;;;5.92;100.00;96519.25;5066268;28;20036;-64
2022/09/30 02:48:16;;;;;;;13.93;8.63;;;;;;;6.05;100.00;96521.66;5066581;28;20630;-64
2022/09/30 02:51:05;;;;;;;13.23;8.30;;;;;;;5.97;100.00;96519.38;5064790;28;20119;-64
2022/09/30 02:54:16;;;;;;;13.48;8.25;;;;;;;5.60;100.00;96524.09;5076594;28;20054;-64
2022/09/30 02:57:03;;;;;;;15.48;8.65;;;;;;;5.52;100.00;96523.66;5000637;28;21606;-64
2022/09/30 02:59:30;;;;;;;15.13;8.20;;;;;;;5.50;100.00;96523.09;5066227;28;20037;-64
2022/09/30 03:01:57;;;;;;;16.73;8.55;;;;;;;5.26;100.00;96532.06;5063798;28;20123;-63
2022/09/30 03:04:27;;;;;;;13.38;8.40;;;;;;;5.13;100.00;96537.69;5065735;28;20094;-63
2022/09/30 03:06:54;;;;;;;14.80;8.27;;;;;;;5.22;100.00;96530.91;5053930;28;20472;-63
2022/09/30 03:09:25;;;;;;;15.38;8.35;;;;;;;5.13;100.00;96549.25;5065953;28;20049;-63
2022/09/30 03:11:59;;;;;;;16.90;7.78;;;;;;;5.01;100.00;96549.25;5070833;28;20086;-64
2022/09/30 03:14:47;;;;;;;15.27;8.18;;;;;;;5.06;100.00;96551.25;5082167;28;20047;-64
2022/09/30 03:17:37;;;;;;;13.35;8.57;;;;;;;5.06;100.00;96556.63;5065194;28;20414;-64
2022/09/30 03:20:12;;;;;;;14.65;8.40;;;;;;;4.93;100.00;96553.13;5065440;28;20094;-64
2022/09/30 03:23:04;;;;;;;12.95;8.38;;;;;;;5.07;100.00;96559.06;5065385;28;20532;-64
2022/09/30 03:25:54;;;;;;;13.40;8.32;;;;;;;5.24;100.00;96554.81;5065300;28;20555;-64
2022/09/30 03:28:35;;;;;;;15.13;8.55;;;;;;;5.53;100.00;96560.22;5058293;28;20048;-64
2022/09/30 03:31:11;;;;;;;14.10;8.97;;;;;;;5.52;100.00;96555.88;5065330;28;20110;-63
2022/09/30 03:33:50;;;;;;;12.32;8.27;;;;;;;5.42;100.00;96564.59;5045744;28;20045;-64
2022/09/30 03:36:26;;;;;;;14.73;7.75;;;;;;;5.31;100.00;96556.31;5065258;28;20143;-64
2022/09/30 03:39:08;;;;;;;15.88;9.02;;;;;;;5.41;100.00;96555.69;5065735;28;20046;-64
2022/09/30 03:41:49;;;;;;;14.30;8.60;;;;;;;5.52;100.00;96550.50;5067862;28;20100;-63
2022/09/30 03:44:22;;;;;;;;;;;;;;;5.62;100.00;96547.22;5051147;28;20047;-63
2022/09/30 03:46:55;;;;;;;17.23;8.27;;;;;;;5.76;100.00;96542.38;5064668;28;19971;-64
2022/09/30 03:49:29;;;;;;;15.65;9.00;;;;;;;5.82;100.00;96550.28;5065799;28;20045;-64
2022/09/30 03:51:57;;;;;;;14.32;8.32;;;;;;;5.95;100.00;96546.47;5065043;28;20059;-64
2022/09/30 03:54:24;;;;;;;13.57;8.43;;;;;;;5.97;100.00;96556.97;5075446;28;20040;-64
2022/09/30 03:56:51;;;;;;;10.52;7.70;;;;;;;5.90;100.00;96559.81;5065316;28;20284;-64
2022/09/30 03:59:29;;;;;;;15.30;7.75;;;;;;;5.71;100.00;96561.88;5065594;28;20044;-64
2022/09/30 04:01:56;;;;;;;13.63;8.45;;;;;;;5.72;100.00;96571.59;5065006;28;20052;-64
2022/09/30 04:04:22;;;;;;;12.70;7.80;;;;;;;5.82;100.00;96577.13;5065480;28;20064;-64
2022/09/30 04:06:49;;;;;;;13.27;8.38;;;;;;;5.89;100.00;96586.94;5065253;28;20541;-64
2022/09/30 04:09:16;;;;;;;13.45;9.23;;;;;;;6.10;100.00;96578.19;5065805;28;20037;-64
2022/09/30 04:11:42;;;;;;;13.95;8.75;;;;;;;5.97;100.00;96573.91;5067660;28;20143;-64
2022/09/30 04:14:09;;;;;;;13.55;7.93;;;;;;;6.01;100.00;96574.22;5064999;28;20083;-64
2022/09/30 04:16:35;;;;;;;15.80;8.70;;;;;;;6.04;100.00;96579.16;5064828;28;20123;-63
2022/09/30 04:19:02;;;;;;;14.40;8.18;;;;;;;6.11;100.00;96585.19;5066473;28;20562;-64
2022/09/30 04:21:28;;;;;;;13.23;8.48;;;;;;;6.15;100.00;96582.03;5065274;28;20257;-64
2022/09/30 04:23:55;;;;;;;13.02;8.00;;;;;;;6.08;100.00;96585.69;5065495;28;20045;-63
2022/09/30 04:26:21;;;;;;;12.20;8.05;;;;;;;6.07;100.00;96578.69;5065401;28;20415;-64
2022/09/30 04:28:48;;;;;;;23.63;12.18;;;;;;;6.07;100.00;96580.53;5064882;28;20119;-64
2022/09/30 04:31:20;;;;;;;72.80;26.25;;;;;;;5.99;100.00;96585.25;5063600;28;20040;-64
2022/09/30 04:33:46;;;;;;;;;;;;;;;6.07;100.00;96586.75;5069592;28;20122;-64
2022/09/30 04:36:13;;;;;;;58.10;22.75;;;;;;;6.14;100.00;96583.91;5068538;28;20019;-64
2022/09/30 04:38:39;;;;;;;60.28;23.95;;;;;;;6.13;100.00;96584.97;5068966;28;20114;-64
2022/09/30 04:41:06;;;;;;;49.55;21.90;;;;;;;6.23;100.00;96587.00;5068259;28;20041;-64
2022/09/30 04:43:33;;;;;;;40.00;18.00;;;;;;;6.35;100.00;96595.00;5070089;28;20161;-64
2022/09/30 04:46:00;;;;;;;33.85;15.27;;;;;;;6.49;100.00;96598.97;5068479;28;20059;-64
2022/09/30 04:48:29;;;;;;;38.25;15.98;;;;;;;6.54;100.00;96598.25;5068738;28;20036;-64
2022/09/30 04:50:56;;;;;;;36.55;16.63;;;;;;;6.55;100.00;96602.56;5068522;28;20041;-64
2022/09/30 04:53:23;;;;;;;41.58;17.38;;;;;;;6.55;100.00;96604.44;5070153;28;20052;-64
2022/09/30 04:55:49;;;;;;;34.45;14.93;;;;;;;6.54;100.00;96595.56;5068022;28;20102;-63
2022/09/30 04:58:16;;;;;;;41.05;14.98;;;;;;;6.49;100.00;96598.19;5067948;28;20070;-64
2022/09/30 05:00:42;;;;;;;38.25;16.02;;;;;;;6.49;100.00;96600.88;5067963;28;20115;-64
2022/09/30 05:03:09;;;;;;;30.05;14.45;;;;;;;6.37;100.00;96604.44;5068895;28;20037;-64
2022/09/30 05:05:36;;;;;;;26.55;12.68;;;;;;;6.36;100.00;96607.38;5068625;28;20037;-64
2022/09/30 05:08:04;;;;;;;27.58;13.50;;;;;;;6.40;100.00;96610.38;5068887;28;20068;-64
2022/09/30 05:10:31;;;;;;;27.95;12.73;;;;;;;6.53;100.00;96609.25;5068714;28;20040;-64
2022/09/30 05:12:58;;;;;;;23.85;11.05;;;;;;;6.38;100.00;96608.75;5068394;28;20044;-64
2022/09/30 05:15:25;;;;;;;15.82;9.13;;;;;;;6.37;100.00;96617.88;5065994;28;20079;-64
2022/09/30 05:17:52;;;;;;;19.45;10.57;;;;;;;6.41;100.00;96618.22;5064510;28;20040;-64
2022/09/30 05:20:19;;;;;;;18.70;10.93;;;;;;;6.50;100.00;96622.13;5068366;28;20040;-64
2022/09/30 05:22:52;;;;;;;17.38;10.25;;;;;;;6.48;100.00;96628.81;5068373;28;20067;-64
2022/09/30 05:25:19;;;;;;;17.23;9.23;;;;;;;6.45;100.00;96623.94;5065240;28;20048;-64
2022/09/30 05:27:48;;;;;;;19.38;10.05;;;;;;;6.51;100.00;96628.31;5065748;28;20446;-64
2022/09/30 05:30:15;;;;;;;20.20;9.82;;;;;;;6.52;100.00;96627.25;5063077;28;20064;-65
2022/09/30 05:32:42;;;;;;;17.23;11.00;;;;;;;6.49;100.00;96636.63;5057447;28;20044;-64
2022/09/30 05:35:10;;;;;;;19.08;12.40;;;;;;;6.45;100.00;96638.19;5067056;28;20051;-64
2022/09/30 05:37:37;;;;;;;16.05;11.25;;;;;;;6.43;100.00;96643.00;5065525;28;20133;-64
2022/09/30 05:40:04;;;;;;;19.25;11.93;;;;;;;6.44;100.00;96644.63;5065473;28;20055;-64
2022/09/30 05:42:33;;;;;;;15.27;10.20;;;;;;;6.29;100.00;96641.66;5064153;28;20041;-65
2022/09/30 05:44:59;;;;;;;15.98;9.90;;;;;;;6.10;100.00;96650.78;5060079;28;20051;-64
2022/09/30 05:47:25;;;;;;;16.98;9.60;;;;;;;6.09;100.00;96651.81;5064472;28;20040;-64
2022/09/30 05:49:52;;;;;;;13.88;9.63;;;;;;;6.05;100.00;96657.91;5065745;28;20154;-64
2022/09/30 05:52:21;;;;;;;18.38;10.68;;;;;;;6.10;100.00;96666.06;5067051;28;20554;-64
2022/09/30 05:54:49;;;;;;;19.00;10.98;;;;;;;6.08;100.00;96662.81;5064845;28;20600;-64
2022/09/30 05:57:16;;;;;;;15.63;10.68;;;;;;;5.96;100.00;96668.19;5067588;28;20048;-64
2022/09/30 05:59:42;;;;;;;16.40;9.90;;;;;;;5.88;100.00;96665.88;5065232;28;20574;-64
2022/09/30 06:02:09;;;;;;;16.98;11.25;;;;;;;5.97;100.00;96659.09;5065355;28;20044;-64
2022/09/30 06:04:36;;;;;;;21.95;11.63;;;;;;;5.92;100.00;96667.88;5054248;28;20044;-64
2022/09/30 06:07:02;;;;;;;17.10;10.70;;;;;;;5.94;100.00;96663.06;5064378;28;20045;-64
2022/09/30 06:09:35;;;;;;;20.90;11.50;;;;;;;5.95;100.00;96672.78;5065126;28;20048;-64
2022/09/30 06:12:02;;;;;;;17.58;11.77;;;;;;;5.91;100.00;96678.84;5069975;28;20036;-64
2022/09/30 06:14:29;;;;;;;16.83;11.77;;;;;;;6.07;100.00;96672.75;5065505;28;20127;-64
2022/09/30 06:16:55;;;;;;;19.77;12.20;;;;;;;6.05;100.00;96677.53;5065159;28;20047;-64
2022/09/30 06:19:22;;;;;;;17.05;11.30;;;;;;;6.02;100.00;96683.38;5065818;28;20655;-64
2022/09/30 06:21:48;;;;;;;19.52;11.90;;;;;;;6.04;100.00;96686.66;5064174;28;20052;-64
2022/09/30 06:24:15;;;;;;;19.98;11.90;;;;;;;6.10;100.00;96698.31;5066478;28;20068;-65
2022/09/30 06:26:42;;;;;;;19.45;11.57;;;;;;;6.20;100.00;96693.13;5066386;28;20547;-64
2022/09/30 06:29:08;;;;;;;18.25;11.05;;;;;;;6.25;100.00;96695.09;5071099;28;20044;-64
2022/09/30 06:31:35;;;;;;;18.25;12.10;;;;;;;6.40;100.00;96704.50;5064763;28;20127;-64
2022/09/30 06:34:02;;;;;;;21.20;13.50;;;;;;;6.59;100.00;96697.84;5064643;28;20052;-64
2022/09/30 06:36:28;;;;;;;22.23;15.02;;;;;;;6.70;100.00;96698.03;5064391;28;20036;-64
2022/09/30 06:38:55;;;;;;;22.48;13.85;;;;;;;6.79;100.00;96696.59;5064980;28;20064;-64
2022/09/30 06:41:26;;;;;;;24.55;12.88;;;;;;;6.92;100.00;96702.69;5064803;28;20115;-64
2022/09/30 06:43:53;;;;;;;18.20;11.80;;;;;;;6.98;100.00;96701.72;5063867;28;20041;-64
2022/09/30 06:46:35;;;;;;;18.35;11.95;;;;;;;7.09;100.00;96706.19;5065847;28;20058;-64
2022/09/30 06:49:13;;;;;;;17.40;11.20;;;;;;;7.16;100.00;96708.72;5066894;28;20044;-64
2022/09/30 06:51:40;;;;;;;20.45;11.68;;;;;;;7.13;100.00;96715.41;5066409;28;20045;-64
2022/09/30 06:54:07;;;;;;;19.02;11.88;;;;;;;7.15;100.00;96718.66;5073482;28;20036;-65
2022/09/30 06:56:34;;;;;;;18.13;11.70;;;;;;;7.14;100.00;96717.03;5063083;28;20044;-65
2022/09/30 06:59:01;;;;;;;18.40;11.68;;;;;;;7.09;100.00;96716.97;5071410;28;20051;-65
2022/09/30 07:01:28;;;;;;;20.83;11.93;;;;;;;7.18;100.00;96716.56;5062203;28;20048;-65
2022/09/30 07:03:56;;;;;;;20.75;12.63;;;;;;;7.24;100.00;96721.78;5064519;28;20451;-64
2022/09/30 07:06:27;;;;;;;21.50;12.32;;;;;;;7.28;100.00;96727.47;5080299;28;20032;-65
2022/09/30 07:08:55;;;;;;;23.42;12.07;;;;;;;7.32;100.00;96734.00;5074365;28;20120;-64
2022/09/30 07:11:22;;;;;;;21.42;11.90;;;;;;;7.52;100.00;96733.47;5072388;28;20044;-65
2022/09/30 07:13:49;;;;;;;18.60;11.98;;;;;;;7.62;100.00;96732.78;5086433;28;20119;-64
2022/09/30 07:16:17;;;;;;;18.92;11.77;;;;;;;7.74;100.00;96740.75;5068365;28;20423;-66
2022/09/30 07:18:44;;;;;;;19.23;11.48;;;;;;;7.84;100.00;96744.66;5057918;28;20578;-64
2022/09/30 07:21:14;;;;;;;19.98;12.05;;;;;;;7.72;100.00;96747.47;5061099;28;20044;-65
2022/09/30 07:23:46;;;;;;;20.85;12.25;;;;;;;7.70;100.00;96742.31;5063887;28;20473;-64
2022/09/30 07:26:18;;;;;;;15.75;11.63;;;;;;;7.76;100.00;96745.91;5063944;28;20513;-64
2022/09/30 07:28:45;;;;;;;;;;;;;;;7.81;100.00;96741.41;5064196;28;20062;-65
2022/09/30 07:31:20;;;;;;;19.52;12.25;;;;;;;7.96;100.00;96733.78;5063805;28;20020;-64
2022/09/30 07:34:07;;;;;;;17.00;10.80;;;;;;;8.01;100.00;96741.91;5063110;28;20485;-65
2022/09/30 07:36:35;;;;;;;17.63;11.18;;;;;;;8.12;100.00;96740.16;5064748;28;20120;-64
2022/09/30 07:39:05;;;;;;;17.77;11.82;;;;;;;8.22;100.00;96742.97;5064632;28;20048;-64
2022/09/30 07:41:35;;;;;;;19.23;11.38;;;;;;;8.33;100.00;96741.19;5066120;28;20048;-64
2022/09/30 07:44:04;;;;;;;19.10;12.35;;;;;;;8.42;100.00;96750.47;5046356;28;20044;-64
2022/09/30 07:46:33;;;;;;;17.63;11.65;;;;;;;8.43;100.00;96756.69;5045821;28;20049;-64
2022/09/30 07:49:02;;;;;;;17.95;10.80;;;;;;;8.45;100.00;96760.75;5045841;28;20040;-65
2022/09/30 07:51:38;;;;;;;17.27;11.63;;;;;;;8.51;100.00;96761.63;5045356;28;20575;-65
2022/09/30 07:54:08;;;;;;;15.77;10.77;;;;;;;8.72;100.00;96769.97;5077912;28;20036;-65
2022/09/30 07:56:37;;;;;;;17.23;10.77;;;;;;;8.91;100.00;96769.59;5085972;28;20538;-65
2022/09/30 07:59:26;;;;;;;20.05;10.38;;;;;;;9.10;100.00;96776.25;5085413;28;20356;-65
2022/09/30 08:01:53;;;;;;;16.45;10.82;;;;;;;9.22;100.00;96775.28;5076672;28;20105;-65
2022/09/30 08:04:21;;;;;;;20.00;11.88;;;;;;;9.28;100.00;96781.53;5065899;28;20102;-65
2022/09/30 08:06:53;;;;;;;16.38;11.20;;;;;;;9.48;99.86;96781.66;5068180;28;20055;-65
2022/09/30 08:09:22;;;;;;;16.85;10.45;;;;;;;9.61;99.45;96785.81;5069908;28;20040;-65
2022/09/30 08:11:49;;;;;;;17.58;11.73;;;;;;;9.69;97.97;96795.31;5073985;28;20094;-65
2022/09/30 08:14:20;;;;;;;19.38;10.88;;;;;;;9.75;97.43;96793.47;5090354;28;20073;-65
2022/09/30 08:16:47;;;;;;;16.08;10.20;;;;;;;9.98;96.86;96794.97;5089527;28;20419;-65
2022/09/30 08:19:19;;;;;;;17.02;9.90;;;;;;;10.12;95.81;96800.72;5083597;28;20073;-65
2022/09/30 08:21:47;;;;;;;18.70;10.77;;;;;;;10.20;94.85;96803.97;5069268;28;20119;-65
2022/09/30 08:24:14;;;;;;;14.05;10.25;;;;;;;10.25;95.39;96804.03;5070179;28;20043;-65
2022/09/30 08:26:41;;;;;;;13.48;9.27;;;;;;;10.35;93.62;96814.06;5069277;28;20064;-65
2022/09/30 08:29:10;;;;;;;15.40;9.50;;;;;;;10.35;93.71;96814.06;5069565;28;20123;-65
2022/09/30 08:31:39;;;;;;;;;;;;;;;10.31;94.11;96813.78;5067150;28;20415;-65
2022/09/30 08:34:06;;;;;;;14.40;9.85;;;;;;;10.21;94.95;96814.53;5078618;28;19982;-65
2022/09/30 08:36:33;;;;;;;14.35;9.48;;;;;;;10.29;94.10;96821.38;5068680;28;20120;-65
2022/09/30 08:38:59;;;;;;;14.55;9.90;;;;;;;10.36;94.46;96813.78;5066902;28;20414;-65
2022/09/30 08:41:37;;;;;;;14.93;9.60;;;;;;;10.15;94.77;96816.41;5067868;28;20044;-64
2022/09/30 08:44:23;;;;;;;16.27;10.55;;;;;;;10.46;93.15;96825.81;5073552;28;20119;-64
2022/09/30 08:46:53;;;;;;;17.00;9.60;;;;;;;10.50;92.54;96827.69;5067147;28;20085;-65
2022/09/30 08:49:35;;;;;;;14.35;9.43;;;;;;;10.71;92.28;96816.13;5069206;28;20044;-64
2022/09/30 08:52:09;;;;;;;14.23;8.95;;;;;;;10.81;90.72;96818.88;5068721;28;20464;-65
2022/09/30 08:54:49;;;;;;;14.32;9.07;;;;;;;10.91;91.02;96831.63;5049224;28;20056;-64
2022/09/30 08:57:16;;;;;;;11.57;8.85;;;;;;;10.98;89.69;96828.66;5048461;28;20037;-64
2022/09/30 08:59:57;;;;;;;19.92;9.88;;;;;;;11.17;88.55;96823.53;5048962;28;20041;-64
2022/09/30 09:02:32;;;;;;;14.77;9.52;;;;;;;11.18;87.91;96827.88;5061703;28;20121;-65
2022/09/30 09:05:01;;;;;;;19.75;11.55;;;;;;;11.28;88.35;96832.50;5068734;28;20052;-64
2022/09/30 09:07:54;;;;;;;14.75;8.93;;;;;;;11.18;87.97;96830.56;5068804;28;20559;-65
2022/09/30 09:10:23;;;;;;;14.10;7.68;;;;;;;11.18;87.54;96825.16;5078168;28;20126;-65
2022/09/30 09:12:56;;;;;;;14.20;8.32;;;;;;;11.31;86.41;96819.19;5088862;28;20139;-64
2022/09/30 09:15:54;;;;;;;12.15;8.63;;;;;;;11.40;86.59;96821.38;5088559;28;20403;-65
2022/09/30 09:18:40;;;;;;;14.00;8.48;;;;;;;11.40;86.85;96824.09;5088650;28;20131;-65
2022/09/30 09:21:20;;;;;;;13.65;8.10;;;;;;;11.65;86.64;96823.25;5047835;28;20089;-65
2022/09/30 09:23:48;;;;;;;15.82;7.53;;;;;;;11.83;83.90;96823.78;5049039;28;20492;-65
2022/09/30 09:26:15;;;;;;;11.75;7.13;;;;;;;11.69;84.94;96821.63;5049603;28;20458;-65
2022/09/30 09:28:56;;;;;;;10.63;6.63;;;;;;;11.86;83.43;96819.72;5068503;28;20474;-65
2022/09/30 09:31:25;;;;;;;8.88;5.97;;;;;;;12.08;80.39;96817.53;5067441;28;20241;-65
2022/09/30 09:33:58;;;;;;;10.93;5.88;;;;;;;12.04;78.56;96818.31;5060942;28;20044;-65
2022/09/30 09:36:28;;;;;;;12.75;6.45;;;;;;;11.99;78.75;96813.72;5065269;28;20186;-65
2022/09/30 09:39:15;;;;;;;14.85;7.05;;;;;;;12.00;80.76;96818.06;5066104;28;20052;-65
2022/09/30 09:41:55;;;;;;;13.75;6.22;;;;;;;11.97;79.67;96819.41;5064101;28;20308;-65
2022/09/30 09:45:00;;;;;;;9.95;6.00;;;;;;;12.40;77.59;96829.09;5061499;28;20294;-65
2022/09/30 09:47:27;;;;;;;8.48;5.40;;;;;;;12.38;75.67;96825.03;5064660;28;20139;-65
2022/09/30 09:50:00;;;;;;;10.45;5.57;;;;;;;12.42;77.04;96826.91;5064025;28;20083;-65
2022/09/30 09:52:45;;;;;;;9.18;6.05;;;;;;;12.28;77.00;96825.88;5065150;28;20523;-65
2022/09/30 09:55:14;;;;;;;14.52;5.93;;;;;;;12.17;75.98;96827.81;5065343;28;20396;-65
2022/09/30 09:57:40;;;;;;;9.23;5.13;;;;;;;12.31;75.67;96828.84;5068340;28;20485;-65
2022/09/30 10:03:18;;;;;;;9.52;5.72;;;;;;;12.44;76.00;96832.06;5065933;28;20123;-65
2022/09/30 10:06:04;;;;;;;9.73;4.80;;;;;;;12.54;76.58;96829.31;5061934;28;20049;-65
2022/09/30 10:08:34;;;;;;;10.50;6.13;;;;;;;12.72;76.49;96832.50;5065842;28;20039;-66
2022/09/30 10:11:03;;;;;;;11.20;6.55;;;;;;;12.52;76.51;96831.50;5064896;28;20144;-65
2022/09/30 10:13:40;;;;;;;10.93;6.00;;;;;;;12.67;75.73;96835.22;5066323;28;20044;-66
2022/09/30 10:16:28;;;;;;;11.65;6.35;;;;;;;12.51;76.40;96840.72;5053052;28;20064;-65
2022/09/30 10:18:56;;;;;;;9.15;5.18;;;;;;;12.57;75.28;96834.19;5064815;28;20507;-65
2022/09/30 10:21:24;;;;;;;7.47;5.57;;;;;;;12.35;75.69;96834.56;5065332;28;20056;-65
2022/09/30 10:23:50;;;;;;;10.80;6.25;;;;;;;12.42;75.54;96836.97;5065428;28;20055;-66
2022/09/30 10:26:26;;;;;;;8.10;5.28;;;;;;;12.59;75.03;96828.47;5065378;28;20045;-66
2022/09/30 10:29:00;;;;;;;10.98;5.65;;;;;;;12.67;74.09;96825.19;5064852;28;20048;-67
2022/09/30 10:31:28;;;;;;;12.55;5.13;;;;;;;12.67;70.67;96835.22;5065354;28;20098;-66
2022/09/30 10:34:10;;;;;;;8.23;3.65;;;;;;;12.61;69.70;96832.53;5062384;28;20507;-66
2022/09/30 10:36:40;;;;;;;6.10;3.20;;;;;;;12.64;69.57;96833.09;5069093;28;20127;-66
2022/09/30 10:39:14;;;;;;;6.60;3.25;;;;;;;12.64;68.63;96836.59;5065393;28;20055;-66
2022/09/30 10:41:41;;;;;;;9.60;3.40;;;;;;;12.50;70.17;96839.13;5067827;28;20044;-66
2022/09/30 10:44:18;;;;;;;9.02;4.20;;;;;;;12.66;69.97;96850.72;5074225;28;20133;-67
2022/09/30 10:46:48;;;;;;;8.60;4.22;;;;;;;12.79;69.27;96848.50;5064624;28;20293;-66
2022/09/30 10:49:41;;;;;;;6.72;4.20;;;;;;;12.73;68.94;96845.81;5064937;28;20131;-65
2022/09/30 10:52:21;;;;;;;7.22;3.95;;;;;;;12.88;67.96;96853.06;5064489;28;20075;-66
2022/09/30 10:54:58;;;;;;;8.90;4.00;;;;;;;12.68;68.76;96850.44;5062615;28;20048;-66
2022/09/30 10:57:35;;;;;;;8.25;4.30;;;;;;;12.86;66.91;96847.09;5064626;28;20044;-65
2022/09/30 11:00:05;;;;;;;;;;;;;;;12.91;66.08;96843.53;5064670;28;20391;-65
2022/09/30 11:02:50;;;;;;;;;;;;;;;13.01;67.08;96840.75;5064527;28;19959;-65
2022/09/30 11:05:39;;;;;;;;;;;;;;;12.96;67.63;96838.06;5055817;28;19931;-65
2022/09/30 11:08:13;;;;;;;;;;;;;;;13.05;67.02;96838.28;5065405;28;19924;-65
2022/09/30 11:10:44;;;;;;;;;;;;;;;13.26;67.16;96838.16;5061834;28;20367;-65
2022/09/30 11:13:16;;;;;;;;;;;;;;;13.37;65.85;96841.59;5064767;28;19931;-65
2022/09/30 11:16:03;;;;;;;;;;;;;;;13.30;65.99;96846.56;5063955;28;19972;-66
2022/09/30 11:18:38;;;;;;;;;;;;;;;13.20;64.82;96850.94;5064725;28;20371;-65
2022/09/30 11:21:11;;;;;;;;;;;;;;;13.31;64.08;96851.72;5059719;28;19920;-65
2022/09/30 11:23:43;;;;;;;;;;;;;;;13.30;63.17;96836.47;5059904;28;19920;-65
2022/09/30 11:26:31;;;;;;;5.72;2.63;;;;;;;13.40;62.86;96843.75;5065527;28;20046;-66
2022/09/30 11:29:14;;;;;;;7.32;3.80;;;;;;;13.58;61.69;96847.75;5063971;28;20052;-65
2022/09/30 11:32:04;;;;;;;6.55;2.80;;;;;;;13.84;60.52;96839.34;5063322;28;20127;-66
2022/09/30 11:35:05;;;;;;;7.32;3.25;;;;;;;14.02;60.33;96850.63;5055808;28;20052;-65
2022/09/30 11:37:53;;;;;;;5.70;3.70;;;;;;;14.18;58.20;96832.22;5064492;28;20041;-65
2022/09/30 11:40:50;;;;;;;5.68;2.50;;;;;;;14.36;56.58;96843.44;5063849;28;20492;-66
2022/09/30 11:43:39;;;;;;;4.78;2.70;;;;;;;14.10;58.05;96847.28;5077695;28;20091;-65
2022/09/30 11:46:31;;;;;;;6.18;3.00;;;;;;;14.29;58.43;96843.78;5077025;28;20044;-65
2022/09/30 11:49:34;;;;;;;6.50;3.47;;;;;;;14.29;58.34;96849.25;5063858;28;20055;-65
2022/09/30 11:52:09;;;;;;;6.60;2.90;;;;;;;14.23;58.13;96858.59;5063384;28;20569;-66
2022/09/30 11:55:25;;;;;;;8.73;3.28;;;;;;;14.12;56.99;96853.22;5060627;28;20076;-65
2022/09/30 11:58:01;;;;;;;6.72;2.47;;;;;;;14.27;55.76;96854.19;5065964;28;20148;-65
2022/09/30 12:00:57;;;;;;;6.63;2.47;;;;;;;14.24;55.28;96850.13;5063295;28;20450;-65